Time;durP1;ratioP1;P1;durP2;ratioP2;P2;SDS_P1;SDS_P2;PMS_P1;PMS_P2;Temp;Humidity;BMP_temperature;BMP_pressure;BME280_temperature;BME280_humidity;BME280_pressure;Samples;Min_cycle;Max_cycle;Signal;HPM_P1;HPM_P2
2024/04/15 00:00:43;;;;;;;11.63;1.58;;;;;;;-146.25;100.00;52339.81;2182050;27;31200;-66
2024/04/15 00:01:45;;;;;;;11.95;0.90;;;;;;;-146.25;100.00;52351.97;2182914;27;33672;-66
2024/04/15 00:02:48;;;;;;;10.88;1.25;;;;;;;-146.25;100.00;52339.81;2183169;27;20010;-66
2024/04/15 00:03:49;;;;;;;12.27;1.10;;;;;;;-146.25;100.00;52347.91;2182746;27;33624;-66
2024/04/15 00:04:51;;;;;;;9.63;1.42;;;;;;;-146.25;100.00;52337.78;2182410;27;35665;-66
2024/04/15 00:05:53;;;;;;;14.68;1.50;;;;;;;-146.25;100.00;52341.84;2183018;27;25751;-66
2024/04/15 00:06:55;;;;;;;11.00;0.98;;;;;;;-146.25;100.00;52323.59;2182390;27;35484;-66
2024/04/15 00:08:00;;;;;;;8.00;1.00;;;;;;;-146.25;100.00;52347.91;2182431;27;34503;-65
2024/04/15 00:09:02;;;;;;;10.98;1.38;;;;;;;-146.25;100.00;52347.91;2182772;27;20003;-65
2024/04/15 00:10:04;;;;;;;12.05;1.02;;;;;;;-146.25;100.00;52323.59;2182448;27;35651;-65
2024/04/15 00:11:06;;;;;;;12.15;1.35;;;;;;;-146.25;100.00;52325.63;2186384;26;30920;-65
2024/04/15 00:12:08;;;;;;;9.85;1.17;;;;;;;-146.25;100.00;52368.19;2196007;27;33713;-66
2024/04/15 00:13:10;;;;;;;9.88;1.20;;;;;;;-146.25;100.00;52319.53;2196582;27;29214;-65
2024/04/15 00:14:15;;;;;;;14.80;1.63;;;;;;;-146.25;100.00;52362.13;2195686;27;34832;-65
2024/04/15 00:15:17;;;;;;;11.93;1.15;;;;;;;-146.25;100.00;52396.59;2195809;26;32272;-65
2024/04/15 00:16:19;;;;;;;12.00;1.38;;;;;;;-146.25;100.00;52376.31;2196969;26;32127;-65
2024/04/15 00:17:21;;;;;;;14.13;1.27;;;;;;;-146.25;100.00;52351.97;2196448;26;36601;-64
2024/04/15 00:18:25;;;;;;;14.45;1.63;;;;;;;-146.25;100.00;52343.88;2197667;26;20014;-65
2024/04/15 00:19:27;;;;;;;11.63;1.38;;;;;;;-146.25;100.00;52380.38;2196407;26;34015;-65
2024/04/15 00:20:29;;;;;;;10.40;1.17;;;;;;;-146.25;100.00;52335.75;2196962;26;33644;-65
2024/04/15 00:21:33;;;;;;;13.57;1.65;;;;;;;-146.25;100.00;52343.88;2196456;27;33566;-64
2024/04/15 00:22:35;;;;;;;15.73;1.45;;;;;;;-146.25;100.00;52343.88;2196714;27;37656;-65
2024/04/15 00:23:41;;;;;;;10.10;1.42;;;;;;;-146.25;100.00;52388.47;2197562;26;20010;-64
2024/04/15 00:24:44;;;;;;;8.60;1.00;;;;;;;-146.25;100.00;52356.03;2197785;27;20010;-64
2024/04/15 00:25:45;;;;;;;7.72;1.27;;;;;;;-146.25;100.00;52386.44;2196473;27;35425;-65
2024/04/15 00:26:51;;;;;;;16.80;2.08;;;;;;;-146.25;100.00;52297.22;2197681;27;20034;-65
2024/04/15 00:27:52;;;;;;;9.75;0.82;;;;;;;-146.25;100.00;52325.63;2196491;26;33603;-65
2024/04/15 00:28:54;;;;;;;7.13;0.90;;;;;;;-146.25;100.00;52325.63;2196770;26;33677;-65
2024/04/15 00:29:56;;;;;;;10.45;1.55;;;;;;;-146.25;100.00;52337.78;2196374;26;31615;-65
2024/04/15 00:31:01;;;;;;;9.77;1.25;;;;;;;-146.25;100.00;52337.78;2195331;27;35442;-65
2024/04/15 00:32:05;;;;;;;11.50;1.30;;;;;;;-146.25;100.00;52382.38;2196381;26;33032;-65
2024/04/15 00:33:07;;;;;;;16.45;1.65;;;;;;;-146.25;100.00;52325.63;2196848;27;34673;-65
2024/04/15 00:34:10;;;;;;;11.45;1.17;;;;;;;-146.25;100.00;52335.75;2197761;26;20013;-65
2024/04/15 00:35:12;;;;;;;12.02;1.42;;;;;;;-146.25;100.00;52341.84;2196836;26;32248;-65
2024/04/15 00:36:14;;;;;;;11.32;1.50;;;;;;;-146.25;100.00;52368.19;2197036;27;20154;-64
2024/04/15 00:37:16;;;;;;;14.50;1.58;;;;;;;-146.25;100.00;52335.75;2196959;27;33567;-65
2024/04/15 00:38:18;;;;;;;11.52;1.60;;;;;;;-146.25;100.00;52337.78;2196364;27;33182;-65
2024/04/15 00:39:20;;;;;;;12.00;1.33;;;;;;;-146.25;100.00;52345.91;2196766;27;36194;-65
2024/04/15 00:40:22;;;;;;;13.90;1.63;;;;;;;-146.25;100.00;52347.91;2197058;27;20018;-64
2024/04/15 00:41:24;;;;;;;11.30;2.00;;;;;;;-146.25;100.00;52376.31;2196706;27;37655;-65
2024/04/15 00:42:26;;;;;;;11.40;1.58;;;;;;;-146.25;100.00;52372.25;2196324;27;31879;-65
2024/04/15 00:43:27;;;;;;;14.32;1.30;;;;;;;-146.25;100.00;52343.88;2196784;27;33490;-65
2024/04/15 00:44:36;;;;;;;10.88;1.20;;;;;;;-146.25;100.00;52364.13;2196001;27;38199;-65
2024/04/15 00:45:38;;;;;;;14.70;1.67;;;;;;;-146.25;100.00;52347.91;2197038;27;35977;-65
2024/04/15 00:46:40;;;;;;;12.38;1.23;;;;;;;-146.25;100.00;52351.97;2196314;26;33901;-65
2024/04/15 00:47:42;;;;;;;13.93;1.60;;;;;;;-146.25;100.00;52351.97;2195941;27;36342;-65
2024/04/15 00:48:45;;;;;;;11.13;1.30;;;;;;;-146.25;100.00;52341.84;2195240;26;34150;-65
2024/04/15 00:49:47;;;;;;;9.25;1.05;;;;;;;-146.25;100.00;52366.16;2181574;27;38537;-65
2024/04/15 00:50:51;;;;;;;9.95;1.02;;;;;;;-146.25;100.00;52356.03;2182093;27;33256;-63
2024/04/15 00:51:56;;;;;;;11.57;1.13;;;;;;;-146.25;100.00;52351.97;2195742;27;33615;-65
2024/04/15 00:53:04;;;;;;;8.77;0.82;;;;;;;-146.25;100.00;52351.97;2195509;27;35322;-65
2024/04/15 00:54:08;;;;;;;12.88;1.25;;;;;;;-146.25;100.00;52354.00;2195939;27;34382;-65
2024/04/15 00:55:11;;;;;;;11.05;1.33;;;;;;;-146.25;100.00;52339.81;2195299;27;34699;-65
2024/04/15 00:56:14;;;;;;;7.78;1.10;;;;;;;-146.25;100.00;52378.34;2196664;27;20009;-65
2024/04/15 00:57:16;;;;;;;7.15;0.98;;;;;;;-146.25;100.00;52343.88;2195521;26;32041;-65
2024/04/15 00:58:19;;;;;;;16.58;1.38;;;;;;;-146.25;100.00;52366.16;2195944;26;34708;-65
2024/04/15 00:59:22;;;;;;;12.85;1.63;;;;;;;-146.25;100.00;52356.03;2194972;26;34119;-64
2024/04/15 01:00:24;;;;;;;10.05;1.33;;;;;;;-146.25;100.00;52362.13;2194782;27;39597;-65
2024/04/15 01:01:29;;;;;;;12.65;1.70;;;;;;;-146.25;100.00;52384.41;2182133;27;20014;-65
2024/04/15 01:02:31;;;;;;;12.60;1.23;;;;;;;-146.25;100.00;52374.28;2181752;27;33953;-65
2024/04/15 01:03:33;;;;;;;10.50;1.20;;;;;;;-146.25;100.00;52358.06;2182090;27;34597;-65
2024/04/15 01:04:35;;;;;;;9.20;1.27;;;;;;;-146.25;100.00;52356.03;2182601;27;35446;-65
2024/04/15 01:05:38;;;;;;;13.02;1.98;;;;;;;-146.25;100.00;52337.78;2181227;27;33823;-65
2024/04/15 01:06:40;;;;;;;14.93;1.42;;;;;;;-146.25;100.00;52396.59;2182153;27;35784;-65
2024/04/15 01:07:44;;;;;;;9.93;1.10;;;;;;;-146.25;100.00;52370.22;2195872;27;35125;-66
2024/04/15 01:08:48;;;;;;;11.02;1.38;;;;;;;-146.25;100.00;52349.94;2194962;27;38077;-65
2024/04/15 01:09:51;;;;;;;12.63;1.70;;;;;;;-146.25;100.00;52372.25;2182776;27;20006;-65
2024/04/15 01:10:53;;;;;;;9.50;1.20;;;;;;;-146.25;100.00;52339.81;2182673;27;31263;-65
2024/04/15 01:11:59;;;;;;;10.75;1.15;;;;;;;-146.25;100.00;52364.13;2181324;27;35652;-65
2024/04/15 01:13:01;;;;;;;8.73;1.02;;;;;;;-146.25;100.00;52368.19;2181886;27;30163;-65
2024/04/15 01:14:04;;;;;;;12.43;1.45;;;;;;;-146.25;100.00;52372.25;2182395;27;20911;-65
2024/04/15 01:15:08;;;;;;;15.60;1.42;;;;;;;-146.25;100.00;52358.06;2181738;27;33027;-65
2024/04/15 01:16:13;;;;;;;8.50;0.90;;;;;;;-146.25;100.00;52364.13;2181235;27;35779;-65
2024/04/15 01:17:14;;;;;;;10.00;1.20;;;;;;;-146.25;100.00;52354.00;2182649;27;34501;-65
2024/04/15 01:18:16;;;;;;;15.35;1.52;;;;;;;-146.25;100.00;52335.75;2182391;27;31316;-64
2024/04/15 01:19:18;;;;;;;10.95;1.13;;;;;;;-146.25;100.00;52396.59;2194772;26;27637;-64
2024/04/15 01:20:20;;;;;;;8.23;1.15;;;;;;;-146.25;100.00;52372.25;2195465;27;31217;-65
2024/04/15 01:21:22;;;;;;;11.15;1.55;;;;;;;-146.25;100.00;52331.69;2196443;26;37944;-65
2024/04/15 01:22:24;;;;;;;9.73;1.17;;;;;;;-146.25;100.00;52347.91;2196262;27;35042;-66
2024/04/15 01:23:31;;;;;;;9.95;1.25;;;;;;;-146.25;100.00;52374.28;2196631;27;37106;-65
2024/04/15 01:24:33;;;;;;;13.07;1.63;;;;;;;-146.25;100.00;52347.91;2195969;27;20138;-65
2024/04/15 01:25:35;;;;;;;11.23;1.15;;;;;;;-146.25;100.00;52368.19;2196682;27;21018;-65
2024/04/15 01:26:37;;;;;;;13.48;1.48;;;;;;;-146.25;100.00;52358.06;2196267;27;32757;-64
2024/04/15 01:27:39;;;;;;;11.93;1.33;;;;;;;-146.25;100.00;52362.13;2196716;26;34635;-65
2024/04/15 01:28:43;;;;;;;13.00;1.38;;;;;;;-146.25;100.00;52345.91;2194938;27;34152;-65
2024/04/15 01:29:47;;;;;;;13.88;1.40;;;;;;;-146.25;100.00;52343.88;2196348;27;20018;-65
2024/04/15 01:30:49;;;;;;;10.45;1.00;;;;;;;-146.25;100.00;52354.00;2195819;27;36242;-65
2024/04/15 01:31:51;;;;;;;11.65;1.52;;;;;;;-146.25;100.00;52362.13;2196595;26;30439;-65
2024/04/15 01:32:53;;;;;;;10.52;1.55;;;;;;;-146.25;100.00;52358.06;2196136;26;35526;-65
2024/04/15 01:33:55;;;;;;;12.70;2.25;;;;;;;-146.25;100.00;52358.06;2196725;27;32772;-65
2024/04/15 01:34:57;;;;;;;15.27;1.20;;;;;;;-146.25;100.00;52347.91;2196685;27;20010;-65
2024/04/15 01:35:59;;;;;;;8.20;1.13;;;;;;;-146.25;100.00;52331.69;2196868;27;30998;-65
2024/04/15 01:37:01;;;;;;;10.60;1.10;;;;;;;-146.25;100.00;52374.28;2196032;27;36053;-65
2024/04/15 01:38:03;;;;;;;9.55;1.40;;;;;;;-146.25;100.00;52364.13;2197104;27;20021;-65
2024/04/15 01:39:05;;;;;;;14.77;1.30;;;;;;;-146.25;100.00;52366.16;2196234;27;34600;-65
2024/04/15 01:40:08;;;;;;;10.77;1.48;;;;;;;-146.25;100.00;52390.50;2196586;26;33223;-65
2024/04/15 01:41:10;;;;;;;13.13;1.27;;;;;;;-146.25;100.00;52370.22;2196930;27;20013;-65
2024/04/15 01:42:14;;;;;;;10.38;1.25;;;;;;;-146.25;100.00;52356.03;2195887;26;34735;-65
2024/04/15 01:43:17;;;;;;;6.65;1.50;;;;;;;-146.25;100.00;52339.81;2196061;27;34319;-65
2024/04/15 01:44:19;;;;;;;21.23;1.48;;;;;;;-146.25;100.00;52398.59;2195387;27;32796;-65
2024/04/15 01:45:21;;;;;;;15.18;2.25;;;;;;;-146.25;100.00;52349.94;2195186;27;35029;-65
2024/04/15 01:46:23;;;;;;;7.55;1.15;;;;;;;-146.25;100.00;52356.03;2196669;27;32345;-65
2024/04/15 01:47:25;;;;;;;14.15;1.30;;;;;;;-146.25;100.00;52345.91;2196011;27;37153;-65
2024/04/15 01:48:27;;;;;;;12.18;1.13;;;;;;;-146.25;100.00;52354.00;2196501;26;36737;-65
2024/04/15 01:49:29;;;;;;;10.90;1.42;;;;;;;-146.25;100.00;52372.25;2195999;26;33478;-64
2024/04/15 01:50:35;;;;;;;10.25;1.20;;;;;;;-146.25;100.00;52390.50;2196362;27;37488;-64
2024/04/15 01:51:37;;;;;;;13.32;1.25;;;;;;;-146.25;100.00;52368.19;2196245;27;32970;-65
2024/04/15 01:52:43;;;;;;;15.00;1.75;;;;;;;-146.25;100.00;52364.13;2195797;27;37254;-65
2024/04/15 01:53:47;;;;;;;11.38;1.15;;;;;;;-146.25;100.00;52364.13;2196029;26;29705;-64
2024/04/15 01:54:52;;;;;;;11.30;1.63;;;;;;;-146.25;100.00;52356.03;2196476;26;32538;-65
2024/04/15 01:55:54;;;;;;;12.48;1.50;;;;;;;-146.25;100.00;52390.50;2196722;27;20104;-65
2024/04/15 01:56:55;;;;;;;10.70;1.48;;;;;;;-146.25;100.00;52378.34;2196342;27;37139;-65
2024/04/15 01:57:57;;;;;;;15.10;2.28;;;;;;;-146.25;100.00;52380.38;2195286;27;31247;-65
2024/04/15 01:59:00;;;;;;;12.25;1.80;;;;;;;-146.25;100.00;52341.84;2195878;26;20013;-65
2024/04/15 02:00:06;;;;;;;12.77;1.30;;;;;;;-146.25;100.00;52343.88;2195266;26;32137;-65
2024/04/15 02:01:15;;;;;;;15.30;1.70;;;;;;;-146.25;100.00;52384.41;2193278;27;20080;-65
2024/04/15 02:02:17;;;;;;;11.20;1.38;;;;;;;-146.25;100.00;52370.22;2182083;27;32500;-64
2024/04/15 02:03:19;;;;;;;11.35;1.40;;;;;;;-146.25;100.00;52378.34;2182167;27;28921;-65
2024/04/15 02:04:21;;;;;;;12.25;1.40;;;;;;;-146.25;100.00;52384.41;2181272;27;20007;-66
2024/04/15 02:05:25;;;;;;;8.82;1.83;;;;;;;-146.25;100.00;52360.09;2181332;27;21160;-65
2024/04/15 02:06:27;;;;;;;11.15;1.27;;;;;;;-146.25;100.00;52337.78;2186371;27;35084;-65
2024/04/15 02:07:31;;;;;;;9.63;1.48;;;;;;;-146.25;100.00;52398.59;2195759;27;33644;-65
2024/04/15 02:08:33;;;;;;;17.65;1.90;;;;;;;-146.25;100.00;52360.09;2196374;26;30879;-65
2024/04/15 02:09:35;;;;;;;10.10;1.55;;;;;;;-146.25;100.00;52351.97;2196179;26;33564;-66
2024/04/15 02:10:37;;;;;;;8.77;1.40;;;;;;;-146.25;100.00;52366.16;2195326;27;33678;-65
2024/04/15 02:11:39;;;;;;;12.98;1.40;;;;;;;-146.25;100.00;52374.28;2195542;27;29345;-63
2024/04/15 02:12:40;;;;;;;8.02;1.75;;;;;;;-146.25;100.00;52376.31;2195302;27;36311;-65
2024/04/15 02:13:42;;;;;;;16.58;1.60;;;;;;;-146.25;100.00;52351.97;2193183;26;31434;-65
2024/04/15 02:14:44;;;;;;;15.80;1.73;;;;;;;-146.25;100.00;52388.47;2196074;26;31023;-65
2024/04/15 02:15:46;;;;;;;10.27;1.45;;;;;;;-146.25;100.00;52356.03;2196178;26;34011;-64
2024/04/15 02:16:48;;;;;;;14.50;1.63;;;;;;;-146.25;100.00;52333.72;2195930;26;36746;-65
2024/04/15 02:17:52;;;;;;;15.75;2.30;;;;;;;-146.25;100.00;52374.28;2196064;26;21060;-65
2024/04/15 02:18:54;;;;;;;9.35;1.30;;;;;;;-146.25;100.00;52388.47;2195219;27;34485;-65
2024/04/15 02:19:56;;;;;;;10.35;2.03;;;;;;;-146.25;100.00;52364.13;2195473;26;35452;-65
2024/04/15 02:21:00;;;;;;;12.05;1.92;;;;;;;-146.25;100.00;52384.41;2195440;27;37095;-65
2024/04/15 02:22:05;;;;;;;11.15;2.22;;;;;;;-146.25;100.00;52362.13;2195512;26;27663;-65
2024/04/15 02:23:07;;;;;;;8.82;1.40;;;;;;;-146.25;100.00;52374.28;2196201;27;20006;-65
2024/04/15 02:24:13;;;;;;;13.57;2.03;;;;;;;-146.25;100.00;52384.41;2196009;27;35819;-65
2024/04/15 02:25:15;;;;;;;14.55;1.90;;;;;;;-146.25;100.00;52356.03;2195860;27;37326;-66
2024/04/15 02:26:19;;;;;;;9.48;1.38;;;;;;;-146.25;100.00;52380.38;2195982;26;36763;-65
2024/04/15 02:27:21;;;;;;;10.82;1.77;;;;;;;-146.25;100.00;52380.38;2196124;27;28890;-65
2024/04/15 02:28:22;;;;;;;14.43;1.75;;;;;;;-146.25;100.00;52374.28;2195870;26;36386;-65
2024/04/15 02:29:24;;;;;;;9.75;1.80;;;;;;;-146.25;100.00;52380.38;2195602;27;34666;-66
2024/04/15 02:30:26;;;;;;;9.93;1.55;;;;;;;-146.25;100.00;52356.03;2195974;26;35522;-65
2024/04/15 02:31:28;;;;;;;14.38;1.52;;;;;;;-146.25;100.00;52368.19;2195830;27;37360;-65
2024/04/15 02:32:30;;;;;;;10.25;1.55;;;;;;;-146.25;100.00;52345.91;2196068;26;31437;-64
2024/04/15 02:33:35;;;;;;;10.68;1.35;;;;;;;-146.25;100.00;52382.38;2196552;27;20010;-65
2024/04/15 02:34:36;;;;;;;8.88;1.45;;;;;;;-146.25;100.00;52382.38;2196041;26;34356;-65
2024/04/15 02:35:40;;;;;;;9.18;1.23;;;;;;;-146.25;100.00;52394.56;2195055;27;34194;-65
2024/04/15 02:36:43;;;;;;;12.07;1.67;;;;;;;-146.25;100.00;52360.09;2195115;27;34698;-65
2024/04/15 02:37:45;;;;;;;6.50;1.48;;;;;;;-146.25;100.00;52384.41;2196372;27;30989;-65
2024/04/15 02:38:49;;;;;;;15.73;1.73;;;;;;;-146.25;100.00;52388.47;2196097;27;32280;-65
2024/04/15 02:39:50;;;;;;;9.50;1.60;;;;;;;-146.25;100.00;52422.94;2195783;26;38853;-64
2024/04/15 02:40:54;;;;;;;12.98;1.83;;;;;;;-146.25;100.00;52368.19;2196124;26;32385;-65
2024/04/15 02:41:56;;;;;;;7.45;1.33;;;;;;;-146.25;100.00;52325.63;2195982;27;32709;-65
2024/04/15 02:43:00;;;;;;;16.42;1.83;;;;;;;-146.25;100.00;52345.91;2195826;27;37663;-65
2024/04/15 02:44:02;;;;;;;10.18;1.63;;;;;;;-146.25;100.00;52360.09;2195533;26;33305;-65
2024/04/15 02:45:05;;;;;;;10.25;1.60;;;;;;;-146.25;100.00;52388.47;2195819;27;34161;-64
2024/04/15 02:46:12;;;;;;;9.32;1.58;;;;;;;-146.25;100.00;52386.44;2195936;27;33756;-65
2024/04/15 02:47:14;;;;;;;16.92;1.98;;;;;;;-146.25;100.00;52368.19;2195650;27;37166;-65
2024/04/15 02:48:16;;;;;;;6.95;1.45;;;;;;;-146.25;100.00;52368.19;2196600;27;20021;-65
2024/04/15 02:49:18;;;;;;;13.85;2.20;;;;;;;-146.25;100.00;52388.47;2195718;27;30940;-64
2024/04/15 02:50:20;;;;;;;21.17;2.20;;;;;;;-146.25;100.00;52364.13;2195750;27;38022;-65
2024/04/15 02:51:24;;;;;;;13.77;2.63;;;;;;;-146.25;100.00;52404.69;2195822;26;31481;-65
2024/04/15 02:52:26;;;;;;;15.23;2.63;;;;;;;-146.25;100.00;52356.03;2196001;27;33325;-65
2024/04/15 02:53:31;;;;;;;13.70;2.33;;;;;;;-146.25;100.00;52343.88;2196431;26;20140;-64
2024/04/15 02:54:33;;;;;;;16.73;2.20;;;;;;;-146.25;100.00;52380.38;2196824;26;34373;-65
2024/04/15 02:55:35;;;;;;;10.90;2.22;;;;;;;-146.25;100.00;52382.38;2197339;26;20150;-65
2024/04/15 02:56:37;;;;;;;10.80;1.88;;;;;;;-146.25;100.00;52384.41;2197213;26;30066;-64
2024/04/15 02:57:39;;;;;;;16.50;2.08;;;;;;;-146.25;100.00;52329.66;2196855;27;35094;-64
2024/04/15 02:58:43;;;;;;;11.32;1.98;;;;;;;-146.25;100.00;52376.31;2196680;26;36060;-64
2024/04/15 02:59:45;;;;;;;12.70;1.92;;;;;;;-146.25;100.00;52402.66;2197100;26;34167;-62
2024/04/15 03:00:47;;;;;;;12.00;1.90;;;;;;;-146.25;100.00;52366.16;2196671;27;37328;-65
2024/04/15 03:01:49;;;;;;;12.10;1.80;;;;;;;-146.25;100.00;52400.63;2197577;26;20132;-65
2024/04/15 03:02:53;;;;;;;13.27;1.77;;;;;;;-146.25;100.00;52374.28;2197076;27;33346;-65
2024/04/15 03:03:55;;;;;;;14.43;1.70;;;;;;;-146.25;100.00;52408.75;2196825;27;34894;-64
2024/04/15 03:04:57;;;;;;;8.75;1.75;;;;;;;-146.25;100.00;52390.50;2197132;26;29509;-65
2024/04/15 03:05:59;;;;;;;9.15;2.13;;;;;;;-146.25;100.00;52400.63;2196673;26;36759;-63
2024/04/15 03:07:03;;;;;;;7.70;1.52;;;;;;;-146.25;100.00;52372.25;2197083;26;34509;-64
2024/04/15 03:08:08;;;;;;;13.98;2.00;;;;;;;-146.25;100.00;52414.84;2196844;27;32494;-65
2024/04/15 03:09:11;;;;;;;11.23;1.63;;;;;;;-146.25;100.00;52337.78;2196934;27;36252;-65
2024/04/15 03:10:13;;;;;;;9.65;1.60;;;;;;;-146.25;100.00;52384.41;2197631;27;20125;-65
2024/04/15 03:11:17;;;;;;;12.90;1.92;;;;;;;-146.25;100.00;52368.19;2197748;27;20900;-64
2024/04/15 03:12:19;;;;;;;8.15;1.90;;;;;;;-146.25;100.00;52360.09;2196868;27;34372;-64
2024/04/15 03:13:21;;;;;;;13.32;1.73;;;;;;;-146.25;100.00;52372.25;2196632;27;34782;-64
2024/04/15 03:14:23;;;;;;;10.85;2.00;;;;;;;-146.25;100.00;52414.84;2181379;27;40469;-65
2024/04/15 03:15:24;;;;;;;13.52;2.40;;;;;;;-146.25;100.00;52400.63;2196132;26;34506;-64
2024/04/15 03:16:26;;;;;;;10.15;1.80;;;;;;;-146.25;100.00;52360.09;2196860;26;33866;-65
2024/04/15 03:17:31;;;;;;;10.30;1.85;;;;;;;-146.25;100.00;52351.97;2197001;26;37257;-65
2024/04/15 03:18:33;;;;;;;13.40;2.60;;;;;;;-146.25;100.00;52402.66;2196756;26;35320;-65
2024/04/15 03:19:34;;;;;;;12.80;2.22;;;;;;;-146.25;100.00;52341.84;2196885;26;33776;-65
2024/04/15 03:20:36;;;;;;;9.25;1.67;;;;;;;-146.25;100.00;52394.56;2196238;27;30907;-65
2024/04/15 03:21:38;;;;;;;15.18;2.00;;;;;;;-146.25;100.00;52394.56;2196679;27;31629;-65
2024/04/15 03:22:48;;;;;;;11.98;2.30;;;;;;;-146.25;100.00;52347.91;2196603;27;38303;-64
2024/04/15 03:23:50;;;;;;;;;;;;;;;-146.25;100.00;52360.09;2198665;26;20014;-65
2024/04/15 03:24:52;;;;;;;18.27;2.03;;;;;;;-146.25;100.00;52404.69;2196487;26;37700;-65
2024/04/15 03:25:54;;;;;;;12.35;1.77;;;;;;;-146.25;100.00;52380.38;2197108;27;33749;-65
2024/04/15 03:26:58;;;;;;;14.13;2.38;;;;;;;-146.25;100.00;52368.19;2197330;26;20124;-64
2024/04/15 03:28:02;;;;;;;10.60;2.28;;;;;;;-146.25;100.00;52362.13;2196932;26;38454;-65
2024/04/15 03:29:04;;;;;;;8.43;2.17;;;;;;;-146.25;100.00;52374.28;2196364;27;33341;-65
2024/04/15 03:30:06;;;;;;;8.40;1.73;;;;;;;-146.25;100.00;52376.31;2196036;26;33783;-64
2024/04/15 03:31:08;;;;;;;10.40;2.08;;;;;;;-146.25;100.00;52374.28;2195675;26;34195;-65
2024/04/15 03:32:10;;;;;;;16.75;2.80;;;;;;;-146.25;100.00;52374.28;2196270;26;35634;-65
2024/04/15 03:33:12;;;;;;;15.45;2.40;;;;;;;-146.25;100.00;52345.91;2182240;27;34695;-64
2024/04/15 03:34:14;;;;;;;12.63;2.30;;;;;;;-146.25;100.00;52368.19;2196237;26;35605;-64
2024/04/15 03:35:17;;;;;;;10.85;2.80;;;;;;;-146.25;100.00;52380.38;2197167;27;20982;-64
2024/04/15 03:36:19;;;;;;;10.68;2.45;;;;;;;-146.25;100.00;52349.94;2196919;26;20021;-65
2024/04/15 03:37:20;;;;;;;11.93;2.80;;;;;;;-146.25;100.00;52400.63;2195783;27;37415;-64
2024/04/15 03:38:22;;;;;;;10.35;2.30;;;;;;;-146.25;100.00;52390.50;2196927;26;36219;-65
2024/04/15 03:39:25;;;;;;;14.05;2.17;;;;;;;-146.25;100.00;52356.03;2196646;27;34022;-65
2024/04/15 03:40:26;;;;;;;11.05;2.15;;;;;;;-146.25;100.00;52372.25;2196795;27;35377;-65
2024/04/15 03:41:29;;;;;;;17.40;2.50;;;;;;;-146.25;100.00;52362.13;2196912;27;32204;-65
2024/04/15 03:42:31;;;;;;;8.15;2.53;;;;;;;-146.25;100.00;52380.38;2196826;26;37467;-65
2024/04/15 03:43:33;;;;;;;12.32;2.05;;;;;;;-146.25;100.00;52374.28;2196694;26;34880;-65
2024/04/15 03:44:36;;;;;;;10.90;1.77;;;;;;;-146.25;100.00;52364.13;2197806;26;20013;-64
2024/04/15 03:45:42;;;;;;;9.75;2.30;;;;;;;-146.25;100.00;52374.28;2197187;27;20025;-64
2024/04/15 03:46:44;;;;;;;8.60;2.17;;;;;;;-146.25;100.00;52358.06;2196835;27;36534;-65
2024/04/15 03:47:45;;;;;;;11.38;2.15;;;;;;;-146.25;100.00;52364.13;2196620;27;34465;-64
2024/04/15 03:48:47;;;;;;;9.23;2.28;;;;;;;-146.25;100.00;52339.81;2197308;26;26128;-66
2024/04/15 03:49:49;;;;;;;10.02;2.28;;;;;;;-146.25;100.00;52376.31;2196630;27;28954;-65
2024/04/15 03:50:51;;;;;;;10.88;2.42;;;;;;;-146.25;100.00;52390.50;2196836;26;33358;-65
2024/04/15 03:51:53;;;;;;;12.13;2.70;;;;;;;-146.25;100.00;52384.41;2196507;26;39090;-66
2024/04/15 03:52:55;;;;;;;11.57;2.15;;;;;;;-146.25;100.00;52378.34;2196942;27;35120;-66
2024/04/15 03:53:57;;;;;;;9.15;2.45;;;;;;;-146.25;100.00;52372.25;2196546;26;34234;-65
2024/04/15 03:55:01;;;;;;;11.60;2.42;;;;;;;-146.25;100.00;52396.59;2196937;27;34870;-65
2024/04/15 03:56:07;;;;;;;12.75;2.70;;;;;;;-146.25;100.00;52343.88;2197459;26;20013;-65
2024/04/15 03:57:11;;;;;;;12.73;2.67;;;;;;;-146.25;100.00;52347.91;2196894;27;37284;-65
2024/04/15 03:58:16;;;;;;;7.90;2.30;;;;;;;-146.25;100.00;52360.09;2196472;26;35079;-64
2024/04/15 03:59:18;;;;;;;12.73;2.97;;;;;;;-146.25;100.00;52402.66;2196691;27;31772;-65
2024/04/15 04:00:20;;;;;;;13.02;3.20;;;;;;;-146.25;100.00;52354.00;2195662;27;36917;-65
2024/04/15 04:01:22;;;;;;;11.43;3.05;;;;;;;-146.25;100.00;52400.63;2182246;27;32485;-66
2024/04/15 04:02:24;;;;;;;16.92;3.70;;;;;;;-146.25;100.00;52376.31;2195563;27;36072;-66
2024/04/15 04:03:28;;;;;;;13.02;2.55;;;;;;;-146.25;100.00;52354.00;2197704;27;20010;-66
2024/04/15 04:04:31;;;;;;;13.75;2.85;;;;;;;-146.25;100.00;52364.13;2196600;27;32534;-65
2024/04/15 04:05:33;;;;;;;13.93;2.72;;;;;;;-146.25;100.00;52358.06;2196899;26;31672;-66
2024/04/15 04:06:35;;;;;;;15.65;3.35;;;;;;;-146.25;100.00;52370.22;2197603;27;20021;-63
2024/04/15 04:07:37;;;;;;;12.90;2.88;;;;;;;-146.25;100.00;52339.81;2196794;26;36356;-65
2024/04/15 04:08:41;;;;;;;10.02;2.60;;;;;;;-146.25;100.00;52360.09;2197185;27;20005;-65
2024/04/15 04:09:43;;;;;;;15.05;2.92;;;;;;;-146.25;100.00;52368.19;2196785;27;35074;-65
2024/04/15 04:10:45;;;;;;;10.90;3.17;;;;;;;-146.25;100.00;52349.94;2196353;27;37247;-65
2024/04/15 04:11:49;;;;;;;13.90;3.22;;;;;;;-146.25;100.00;52368.19;2196951;27;33013;-65
2024/04/15 04:12:50;;;;;;;14.93;3.45;;;;;;;-146.25;100.00;52382.38;2196587;26;32961;-65
2024/04/15 04:13:56;;;;;;;11.25;3.05;;;;;;;-146.25;100.00;52378.34;2196498;26;33669;-65
2024/04/15 04:14:58;;;;;;;14.38;3.25;;;;;;;-146.25;100.00;52380.38;2196555;27;30342;-65
2024/04/15 04:16:01;;;;;;;11.93;3.03;;;;;;;-146.25;100.00;52390.50;2196782;26;37547;-65
2024/04/15 04:17:03;;;;;;;13.75;3.55;;;;;;;-146.25;100.00;52382.38;2197176;26;20014;-65
2024/04/15 04:18:07;;;;;;;11.55;4.13;;;;;;;-146.25;100.00;52388.47;2197520;27;20013;-66
2024/04/15 04:19:12;;;;;;;14.00;3.47;;;;;;;-146.25;100.00;52358.06;2196565;27;35040;-65
2024/04/15 04:20:14;;;;;;;13.43;3.03;;;;;;;-146.25;100.00;52390.50;2196918;26;35754;-65
2024/04/15 04:21:15;;;;;;;9.35;3.45;;;;;;;-146.25;100.00;52384.41;2196317;27;36493;-65
2024/04/15 04:22:17;;;;;;;10.85;2.35;;;;;;;-146.25;100.00;52360.09;2196803;27;32132;-65
2024/04/15 04:23:19;;;;;;;14.32;3.20;;;;;;;-146.25;100.00;52374.28;2195617;26;33461;-66
2024/04/15 04:24:24;;;;;;;12.07;2.92;;;;;;;-146.25;100.00;52354.00;2196250;27;33737;-66
2024/04/15 04:25:26;;;;;;;11.32;3.10;;;;;;;-146.25;100.00;52349.94;2196332;27;33546;-65
2024/04/15 04:26:28;;;;;;;17.00;3.22;;;;;;;-146.25;100.00;52388.47;2196833;26;37578;-65
2024/04/15 04:27:29;;;;;;;11.27;2.83;;;;;;;-146.25;100.00;52339.81;2197314;26;20006;-65
2024/04/15 04:28:32;;;;;;;15.75;3.30;;;;;;;-146.25;100.00;52360.09;2197187;27;35874;-65
2024/04/15 04:29:34;;;;;;;13.32;3.60;;;;;;;-146.25;100.00;52356.03;2196119;26;33728;-65
2024/04/15 04:30:36;;;;;;;11.15;2.92;;;;;;;-146.25;100.00;52339.81;2196986;27;32673;-66
2024/04/15 04:31:38;;;;;;;10.13;2.80;;;;;;;-146.25;100.00;52366.16;2196315;26;32504;-65
2024/04/15 04:32:42;;;;;;;14.68;3.13;;;;;;;-146.25;100.00;52343.88;2198236;27;20002;-66
2024/04/15 04:33:45;;;;;;;16.20;3.20;;;;;;;-146.25;100.00;52364.13;2197120;26;20882;-65
2024/04/15 04:34:47;;;;;;;11.82;2.70;;;;;;;-146.25;100.00;52368.19;2197341;27;20010;-65
2024/04/15 04:35:49;;;;;;;12.45;2.90;;;;;;;-146.25;100.00;52378.34;2196603;26;31263;-66
2024/04/15 04:36:51;;;;;;;13.30;2.50;;;;;;;-146.25;100.00;52347.91;2196897;27;32917;-65
2024/04/15 04:37:53;;;;;;;9.15;2.05;;;;;;;-146.25;100.00;52384.41;2196504;27;34205;-65
2024/04/15 04:38:56;;;;;;;11.93;2.38;;;;;;;-146.25;100.00;52396.59;2196746;27;36944;-66
2024/04/15 04:39:58;;;;;;;12.40;1.98;;;;;;;-146.25;100.00;52378.34;2196897;26;20030;-65
2024/04/15 04:41:01;;;;;;;11.32;2.70;;;;;;;-146.25;100.00;52372.25;2196898;26;33168;-66
2024/04/15 04:42:06;;;;;;;10.10;2.45;;;;;;;-146.25;100.00;52364.13;2196482;27;30796;-65
2024/04/15 04:43:07;;;;;;;7.30;2.30;;;;;;;-146.25;100.00;52374.28;2197437;27;20002;-65